createdAt,value
2019-01-04T00:00:16.198Z,23.37
2019-01-04T00:02:45.123Z,21.10
2019-01-04T00:05:14.793Z,21.27
2019-01-04T00:07:43.516Z,18.47
2019-01-04T00:10:12.357Z,25.73
2019-01-04T00:12:41.104Z,22.43
2019-01-04T00:15:09.780Z,19.53
2019-01-04T00:17:38.457Z,19.30
2019-01-04T00:20:07.041Z,18.40
2019-01-04T00:22:35.691Z,21.47
2019-01-04T00:25:04.446Z,20.47
2019-01-04T00:27:33.031Z,20.87
2019-01-04T00:30:01.796Z,19.40
2019-01-04T00:32:30.536Z,21.57
2019-01-04T00:34:59.426Z,20.17
2019-01-04T00:37:28.055Z,18.53
2019-01-04T00:39:56.883Z,18.33
2019-01-04T00:42:25.467Z,19.30
2019-01-04T00:44:54.210Z,19.50
2019-01-04T00:47:25.207Z,18.57
2019-01-04T00:49:56.017Z,18.97
2019-01-04T00:52:24.751Z,16.57
2019-01-04T00:54:53.677Z,17.20
2019-01-04T00:57:27.868Z,19.63
2019-01-04T01:00:13.524Z,18.00
2019-01-04T01:03:00.657Z,18.83
2019-01-04T01:05:45.131Z,21.47
2019-01-04T01:08:41.662Z,17.50
2019-01-04T01:11:38.341Z,16.50
2019-01-04T01:14:36.821Z,22.17
2019-01-04T01:17:27.641Z,20.97
2019-01-04T01:20:08.250Z,18.10
2019-01-04T01:23:05.151Z,20.30
2019-01-04T01:26:01.848Z,21.53
2019-01-04T01:28:57.038Z,19.27
2019-01-04T01:31:37.279Z,22.10
2019-01-04T01:34:26.099Z,22.00
2019-01-04T01:37:16.941Z,18.13
2019-01-04T01:40:14.529Z,17.70
2019-01-04T01:43:01.049Z,27.87
2019-01-04T01:45:51.869Z,20.37
2019-01-04T01:48:28.385Z,16.17
2019-01-04T01:51:21.941Z,19.07
2019-01-04T01:53:50.561Z,19.87
2019-01-04T01:56:19.448Z,19.97
2019-01-04T01:58:48.426Z,17.73
2019-01-04T02:01:18.297Z,23.77
2019-01-04T02:03:46.901Z,19.70
2019-01-04T02:06:15.627Z,20.43
2019-01-04T02:08:44.585Z,18.47
2019-01-04T02:11:13.314Z,21.63
2019-01-04T02:13:41.969Z,23.07
2019-01-04T02:16:10.575Z,17.80
2019-01-04T02:18:39.421Z,20.00
2019-01-04T02:21:07.944Z,18.77
2019-01-04T02:23:36.734Z,22.30
2019-01-04T02:26:05.474Z,22.83
2019-01-04T02:28:34.149Z,19.67
2019-01-04T02:31:02.792Z,20.33
2019-01-04T02:33:31.412Z,20.80
2019-01-04T02:36:00.018Z,17.30
2019-01-04T02:38:29.865Z,20.80
2019-01-04T02:40:58.410Z,18.50
2019-01-04T02:43:27.190Z,17.97
2019-01-04T02:45:55.924Z,19.33
2019-01-04T02:48:24.544Z,19.10
2019-01-04T02:50:53.025Z,19.10
2019-01-04T02:53:21.636Z,20.23
2019-01-04T02:55:50.413Z,19.93
2019-01-04T02:58:19.140Z,17.87
2019-01-04T03:00:49.141Z,17.47
2019-01-04T03:03:17.792Z,19.07
2019-01-04T03:05:46.576Z,21.63
2019-01-04T03:08:17.490Z,19.37
2019-01-04T03:10:46.142Z,20.07
2019-01-04T03:13:14.702Z,20.90
2019-01-04T03:15:43.682Z,19.73
2019-01-04T03:18:12.302Z,19.17
2019-01-04T03:20:41.145Z,18.07
2019-01-04T03:23:09.722Z,17.00
2019-01-04T03:25:38.519Z,18.67
2019-01-04T03:28:07.125Z,17.47
2019-01-04T03:30:36.730Z,16.47
2019-01-04T03:33:05.492Z,20.13
2019-01-04T03:35:34.373Z,20.30
2019-01-04T03:38:02.970Z,17.17
2019-01-04T03:40:31.601Z,20.70
2019-01-04T03:43:01.228Z,18.93
2019-01-04T03:45:29.979Z,18.50
2019-01-04T03:47:58.551Z,20.03
2019-01-04T03:50:27.520Z,19.10
2019-01-04T03:52:56.356Z,20.43
2019-01-04T03:55:24.885Z,19.43
2019-01-04T03:57:53.446Z,25.73
2019-01-04T04:00:22.045Z,17.40
2019-01-04T04:02:53.352Z,21.03
2019-01-04T04:05:22.133Z,20.00
2019-01-04T04:07:53.697Z,18.37
2019-01-04T04:10:23.657Z,19.17
2019-01-04T04:12:52.682Z,18.77
2019-01-04T04:15:21.404Z,20.50
2019-01-04T04:17:53.025Z,21.47
2019-01-04T04:20:21.794Z,22.30
2019-01-04T04:22:50.518Z,20.60
2019-01-04T04:25:19.780Z,21.93
2019-01-04T04:27:51.168Z,21.07
2019-01-04T04:30:19.839Z,19.00
2019-01-04T04:32:49.604Z,17.87
2019-01-04T04:35:18.499Z,20.43
2019-01-04T04:37:49.380Z,20.67
2019-01-04T04:40:17.966Z,21.27
2019-01-04T04:42:48.640Z,23.13
2019-01-04T04:45:20.794Z,19.97
2019-01-04T04:47:51.756Z,20.93
2019-01-04T04:50:20.361Z,19.60
2019-01-04T04:52:49.025Z,22.13
2019-01-04T04:55:18.794Z,23.87
2019-01-04T04:57:47.421Z,19.57
2019-01-04T05:00:16.059Z,21.13
2019-01-04T05:02:47.145Z,21.53
2019-01-04T05:05:15.781Z,20.67
2019-01-04T05:07:44.389Z,19.97
2019-01-04T05:10:13.122Z,21.20
2019-01-04T05:12:41.956Z,20.43
2019-01-04T05:15:10.661Z,18.17
2019-01-04T05:17:39.224Z,23.77
2019-01-04T05:20:10.984Z,23.70
2019-01-04T05:22:39.822Z,20.53
2019-01-04T05:25:08.409Z,18.00
2019-01-04T05:27:37.340Z,19.10
2019-01-04T05:30:06.090Z,19.53
2019-01-04T05:32:34.737Z,20.60
2019-01-04T05:35:04.507Z,21.97
2019-01-04T05:37:33.212Z,19.53
2019-01-04T05:40:01.914Z,20.63
2019-01-04T05:42:31.617Z,17.17
2019-01-04T05:45:00.463Z,20.23
2019-01-04T05:47:29.122Z,22.13
2019-01-04T05:49:58.844Z,18.70
2019-01-04T05:52:27.497Z,19.47
2019-01-04T05:54:56.302Z,20.30
2019-01-04T05:57:25.201Z,18.90
2019-01-04T05:59:53.727Z,19.73
2019-01-04T06:02:23.449Z,20.80
2019-01-04T06:04:51.961Z,20.00
2019-01-04T06:07:20.703Z,21.83
2019-01-04T06:09:50.231Z,24.60
2019-01-04T06:12:18.778Z,20.13
2019-01-04T06:14:47.394Z,20.60
2019-01-04T06:17:16.205Z,23.83
2019-01-04T06:19:44.756Z,19.47
2019-01-04T06:22:13.311Z,19.77
2019-01-04T06:24:42.264Z,19.73
2019-01-04T06:27:10.950Z,23.10
2019-01-04T06:29:46.805Z,21.53
2019-01-04T06:32:15.502Z,21.07
2019-01-04T06:34:44.143Z,22.00
2019-01-04T06:37:12.907Z,18.83
2019-01-04T06:39:41.638Z,21.63
2019-01-04T06:42:10.223Z,25.00
2019-01-04T06:44:39.901Z,20.77
2019-01-04T06:47:10.488Z,21.17
2019-01-04T06:49:39.130Z,23.37
2019-01-04T06:52:07.674Z,27.13
2019-01-04T06:54:53.822Z,28.93
2019-01-04T06:57:22.441Z,22.90
2019-01-04T06:59:51.048Z,20.00
2019-01-04T07:02:19.775Z,22.63
2019-01-04T07:04:48.451Z,23.47
2019-01-04T07:07:19.046Z,21.50
2019-01-04T07:09:47.678Z,26.33
2019-01-04T07:12:16.153Z,21.73
2019-01-04T07:14:45.778Z,25.70
2019-01-04T07:17:14.498Z,22.83
2019-01-04T07:19:44.014Z,38.90
2019-01-04T07:22:12.646Z,37.93
2019-01-04T07:24:41.412Z,37.03
2019-01-04T07:27:09.956Z,29.63
2019-01-04T07:29:38.531Z,51.17
2019-01-04T07:32:07.165Z,29.63
2019-01-04T07:34:35.831Z,24.10
2019-01-04T07:37:04.356Z,37.50
2019-01-04T07:39:32.994Z,69.73
2019-01-04T07:42:01.646Z,56.63
2019-01-04T07:44:30.342Z,47.30
2019-01-04T07:47:00.137Z,29.07
2019-01-04T07:49:28.729Z,23.57
2019-01-04T07:51:58.629Z,23.03
2019-01-04T07:54:27.327Z,25.80
2019-01-04T07:56:57.108Z,26.07
2019-01-04T07:59:25.821Z,25.60
2019-01-04T08:01:55.478Z,34.80
2019-01-04T08:04:24.013Z,25.10
2019-01-04T08:06:52.658Z,21.77
2019-01-04T08:09:23.447Z,21.77
2019-01-04T08:11:52.041Z,23.23
2019-01-04T08:14:20.541Z,25.83
2019-01-04T08:16:49.158Z,22.80
2019-01-04T08:19:17.802Z,22.40
2019-01-04T08:21:48.485Z,24.00
2019-01-04T08:24:17.158Z,22.03
2019-01-04T08:26:45.866Z,20.77
2019-01-04T08:29:14.565Z,18.97
2019-01-04T08:31:43.258Z,22.30
2019-01-04T08:34:11.771Z,18.17
2019-01-04T08:36:40.396Z,20.50
2019-01-04T08:39:09.498Z,21.40
2019-01-04T08:41:38.041Z,18.20
2019-01-04T08:44:06.874Z,19.90
2019-01-04T08:46:35.385Z,18.10
2019-01-04T08:49:04.208Z,17.70
2019-01-04T08:51:32.761Z,18.57
2019-01-04T08:54:04.323Z,16.40
2019-01-04T08:56:33.897Z,16.37
2019-01-04T08:59:03.528Z,16.03
2019-01-04T09:01:32.003Z,17.73
2019-01-04T09:04:00.739Z,18.20
2019-01-04T09:06:29.363Z,18.53
2019-01-04T09:09:00.054Z,15.10
2019-01-04T09:11:29.267Z,19.73
2019-01-04T09:13:59.302Z,23.37
2019-01-04T09:16:27.890Z,18.60
2019-01-04T09:18:56.519Z,21.07
2019-01-04T09:21:25.394Z,19.97
2019-01-04T09:23:54.091Z,20.83
2019-01-04T09:26:22.657Z,20.57
2019-01-04T09:28:51.389Z,25.20
2019-01-04T09:31:21.031Z,20.30
2019-01-04T09:33:49.567Z,17.83
2019-01-04T09:36:18.110Z,16.60
2019-01-04T09:38:49.944Z,19.83
2019-01-04T09:41:25.176Z,19.43
2019-01-04T09:43:55.202Z,17.07
2019-01-04T09:46:27.329Z,16.73
2019-01-04T09:48:57.396Z,19.97
2019-01-04T09:51:26.428Z,19.23
2019-01-04T09:53:55.338Z,19.50
2019-01-04T09:56:24.119Z,16.77
2019-01-04T09:58:52.892Z,19.53
2019-01-04T10:01:21.523Z,18.40
2019-01-04T10:03:51.443Z,20.03
2019-01-04T10:06:23.384Z,18.47
2019-01-04T10:08:58.618Z,17.23
2019-01-04T10:11:31.527Z,15.27
2019-01-04T10:14:00.822Z,16.17
2019-01-04T10:16:50.137Z,17.80
2019-01-04T10:19:56.442Z,15.03
2019-01-04T10:22:28.698Z,15.47
2019-01-04T10:25:46.957Z,16.87
2019-01-04T10:28:09.328Z,17.60
2019-01-04T10:31:32.982Z,17.97
2019-01-04T10:34:13.801Z,17.97
2019-01-04T10:38:07.074Z,13.10
2019-01-04T10:40:13.805Z,14.70
2019-01-04T10:43:40.880Z,13.67
2019-01-04T10:47:56.778Z,13.03
2019-01-04T11:04:22.397Z,15.37
2019-01-04T11:07:09.819Z,17.17
2019-01-04T11:09:47.741Z,18.67
2019-01-04T13:10:26.275Z,9.67
2019-01-04T13:12:57.810Z,10.57
2019-01-04T13:15:29.162Z,8.80
2019-01-04T13:17:57.996Z,11.87
2019-01-04T13:20:27.361Z,9.47
2019-01-04T13:22:59.645Z,8.73
2019-01-04T13:25:29.249Z,8.80
2019-01-04T17:02:06.944Z,10.10
2019-01-04T17:04:47.842Z,8.70
2019-01-04T17:11:00.792Z,7.50
2019-01-04T17:13:43.529Z,6.77
2019-01-04T17:16:13.486Z,7.03
2019-01-04T17:19:19.115Z,8.03
2019-01-04T17:22:46.459Z,7.07
2019-01-04T17:25:33.893Z,6.50
2019-01-04T17:30:45.223Z,6.88
2019-01-04T17:33:17.488Z,7.67
2019-01-04T17:35:44.454Z,9.17
2019-01-04T17:38:11.994Z,7.33
2019-01-04T17:40:38.671Z,7.73
2019-01-04T17:43:22.094Z,12.43
2019-01-04T17:46:05.601Z,10.37
2019-01-04T17:48:34.896Z,6.83
2019-01-04T20:49:33.554Z,9.17
2019-01-04T20:52:19.578Z,8.30
2019-01-04T20:55:08.490Z,8.90
2019-01-04T20:57:54.708Z,8.87
2019-01-04T21:00:39.723Z,9.33
2019-01-04T21:03:30.369Z,11.43
2019-01-04T21:06:25.045Z,11.57
2019-01-04T21:09:20.133Z,9.93
2019-01-04T21:12:15.380Z,8.93
2019-01-04T21:15:10.457Z,9.23
2019-01-04T21:17:57.577Z,9.33
2019-01-04T21:20:38.674Z,9.70
2019-01-04T21:23:27.649Z,10.73
2019-01-04T21:26:12.453Z,10.53
2019-01-04T21:28:58.470Z,12.03
2019-01-04T21:31:46.798Z,10.20
2019-01-04T21:34:33.214Z,10.67
2019-01-04T21:37:11.964Z,9.33
2019-01-04T21:40:04.473Z,10.00
2019-01-04T21:42:43.621Z,9.13
2019-01-04T21:45:44.998Z,10.13
2019-01-04T21:48:31.165Z,11.90
2019-01-04T21:51:17.499Z,10.30
2019-01-04T21:54:14.667Z,9.57
2019-01-04T21:57:19.118Z,10.43
2019-01-04T22:00:05.157Z,9.80
2019-01-04T22:02:49.914Z,10.27
2019-01-04T22:05:38.770Z,9.47
2019-01-04T22:08:33.059Z,11.27
2019-01-04T22:11:34.450Z,12.30
2019-01-04T22:14:17.468Z,12.13
2019-01-04T22:17:02.305Z,8.63
2019-01-04T22:19:57.620Z,8.47
2019-01-04T22:22:42.298Z,8.20
2019-01-04T22:25:26.764Z,8.33
2019-01-04T22:28:03.622Z,8.13
2019-01-04T22:30:52.609Z,7.77
2019-01-04T22:33:51.438Z,8.47
2019-01-04T22:36:38.012Z,8.03
2019-01-04T22:39:56.917Z,7.97
2019-01-04T22:42:41.600Z,9.57
2019-01-04T22:45:28.747Z,11.13
2019-01-04T22:48:24.366Z,9.40
2019-01-04T22:51:25.715Z,8.47
2019-01-04T22:54:11.878Z,8.50
2019-01-04T22:57:00.462Z,7.70
2019-01-04T22:59:52.472Z,6.80
2019-01-04T23:02:50.570Z,6.90
2019-01-04T23:05:41.641Z,7.20
2019-01-04T23:08:42.779Z,8.70
2019-01-04T23:11:47.082Z,7.13
2019-01-04T23:14:31.692Z,7.40
2019-01-04T23:17:18.320Z,7.33
2019-01-04T23:20:04.325Z,7.43
2019-01-04T23:22:51.225Z,8.33
2019-01-04T23:25:38.443Z,7.50
2019-01-04T23:28:23.181Z,6.80
2019-01-04T23:31:09.336Z,6.80
2019-01-04T23:34:00.956Z,7.30
2019-01-04T23:36:49.718Z,6.10
2019-01-04T23:39:38.721Z,6.27
2019-01-04T23:42:24.688Z,5.90
2019-01-04T23:45:08.786Z,5.90
2019-01-04T23:48:02.801Z,5.97
2019-01-04T23:51:03.705Z,6.73
2019-01-04T23:53:58.675Z,6.30
2019-01-04T23:56:47.602Z,5.80
2019-01-04T23:59:42.941Z,6.60
